Time;durP1;ratioP1;P1;durP2;ratioP2;P2;SDS_P1;SDS_P2;PMS_P1;PMS_P2;Temp;Humidity;BMP_temperature;BMP_pressure;BME280_temperature;BME280_humidity;BME280_pressure;Samples;Min_cycle;Max_cycle;Signal;HPM_P1;HPM_P2
2023/02/01 00:00:00;;;;;;;2.1;2.1;;;;;;;4.0;100.0;101810;;;;
2023/02/01 00:01:05;;;;;;;2.1;2.1;;;;;;;4.0;100.0;101810;;;;
2023/02/01 00:02:01;;;;;;;2.1;2.1;;;;;;;4.0;100.0;101810;;;;
2023/02/01 00:03:00;;;;;;;2.1;2.1;;;;;;;4.1;100.0;101810;;;;
2023/02/01 00:04:00;;;;;;;2.1;2.1;;;;;;;4.1;100.0;101810;;;;
2023/02/01 00:05:00;;;;;;;2.1;2.1;;;;;;;4.0;100.0;101810;;;;
2023/02/01 00:06:00;;;;;;;2.1;2.1;;;;;;;4.0;100.0;101810;;;;
2023/02/01 00:07:01;;;;;;;2.1;2.1;;;;;;;4.1;100.0;101810;;;;
2023/02/01 00:08:00;;;;;;;2.1;2.1;;;;;;;4.1;100.0;101810;;;;
2023/02/01 00:09:00;;;;;;;2.1;2.1;;;;;;;4.1;100.0;101810;;;;
2023/02/01 00:10:00;;;;;;;2.1;2.1;;;;;;;4.1;100.0;101810;;;;
2023/02/01 00:11:01;;;;;;;2.1;2.1;;;;;;;4.1;100.0;101800;;;;
2023/02/01 00:12:02;;;;;;;2.1;2.1;;;;;;;4.1;100.0;101800;;;;
2023/02/01 00:13:00;;;;;;;2.1;2.1;;;;;;;4.2;100.0;101800;;;;
2023/02/01 00:14:00;;;;;;;2.1;2.1;;;;;;;4.2;100.0;101800;;;;
2023/02/01 00:15:00;;;;;;;2.0;2.0;;;;;;;4.2;100.0;101790;;;;
2023/02/01 00:16:04;;;;;;;2.0;2.0;;;;;;;4.2;100.0;101790;;;;
2023/02/01 00:17:00;;;;;;;2.0;2.0;;;;;;;4.2;100.0;101790;;;;
2023/02/01 00:18:00;;;;;;;2.0;2.0;;;;;;;4.2;100.0;101790;;;;
2023/02/01 00:19:05;;;;;;;2.0;2.0;;;;;;;4.2;100.0;101770;;;;
2023/02/01 00:20:00;;;;;;;2.0;2.0;;;;;;;4.2;100.0;101770;;;;
2023/02/01 00:21:00;;;;;;;2.0;2.0;;;;;;;4.3;100.0;101760;;;;
2023/02/01 00:22:00;;;;;;;2.0;2.0;;;;;;;4.3;100.0;101760;;;;
2023/02/01 00:23:00;;;;;;;2.0;2.0;;;;;;;4.3;100.0;101760;;;;
2023/02/01 00:24:00;;;;;;;2.0;2.0;;;;;;;4.3;100.0;101760;;;;
2023/02/01 00:25:00;;;;;;;2.0;2.0;;;;;;;4.3;100.0;101760;;;;
2023/02/01 00:26:02;;;;;;;2.0;2.0;;;;;;;4.3;100.0;101760;;;;
2023/02/01 00:27:00;;;;;;;2.0;2.0;;;;;;;4.3;100.0;101770;;;;
2023/02/01 00:28:00;;;;;;;2.0;2.0;;;;;;;4.3;100.0;101770;;;;
2023/02/01 00:29:01;;;;;;;2.0;2.0;;;;;;;4.3;100.0;101770;;;;
2023/02/01 00:30:00;;;;;;;2.0;2.0;;;;;;;4.3;100.0;101770;;;;
2023/02/01 00:31:01;;;;;;;2.0;2.0;;;;;;;4.4;100.0;101760;;;;
2023/02/01 00:32:00;;;;;;;2.0;2.0;;;;;;;4.4;100.0;101760;;;;
2023/02/01 00:33:00;;;;;;;2.0;2.0;;;;;;;4.3;100.0;101770;;;;
2023/02/01 00:34:00;;;;;;;2.0;2.0;;;;;;;4.3;100.0;101770;;;;
2023/02/01 00:35:00;;;;;;;2.1;2.1;;;;;;;4.4;100.0;101780;;;;
2023/02/01 00:36:01;;;;;;;2.1;2.1;;;;;;;4.4;100.0;101780;;;;
2023/02/01 00:37:00;;;;;;;2.1;2.1;;;;;;;4.4;100.0;101780;;;;
2023/02/01 00:38:00;;;;;;;2.1;2.1;;;;;;;4.4;100.0;101780;;;;
2023/02/01 00:39:00;;;;;;;2.1;2.1;;;;;;;4.4;100.0;101780;;;;
2023/02/01 00:40:00;;;;;;;2.1;2.1;;;;;;;4.4;100.0;101780;;;;
2023/02/01 00:41:03;;;;;;;2.1;2.1;;;;;;;4.4;100.0;101780;;;;
2023/02/01 00:42:01;;;;;;;2.1;2.1;;;;;;;4.4;100.0;101780;;;;
2023/02/01 00:43:00;;;;;;;2.1;2.1;;;;;;;4.4;100.0;101790;;;;
2023/02/01 00:44:01;;;;;;;2.1;2.1;;;;;;;4.4;100.0;101790;;;;
2023/02/01 00:45:00;;;;;;;2.1;2.1;;;;;;;4.4;100.0;101790;;;;
2023/02/01 00:46:01;;;;;;;2.1;2.1;;;;;;;4.4;100.0;101790;;;;
2023/02/01 00:47:00;;;;;;;2.1;2.1;;;;;;;4.4;100.0;101780;;;;
2023/02/01 00:48:00;;;;;;;2.1;2.1;;;;;;;4.4;100.0;101780;;;;
2023/02/01 00:49:00;;;;;;;2.1;2.1;;;;;;;4.4;100.0;101780;;;;
2023/02/01 00:50:00;;;;;;;2.1;2.1;;;;;;;4.4;100.0;101780;;;;
2023/02/01 00:51:05;;;;;;;2.1;2.1;;;;;;;4.4;100.0;101770;;;;
2023/02/01 00:52:00;;;;;;;2.1;2.1;;;;;;;4.4;100.0;101770;;;;
2023/02/01 00:53:00;;;;;;;2.1;2.1;;;;;;;4.4;100.0;101770;;;;
2023/02/01 00:54:00;;;;;;;2.1;2.1;;;;;;;4.4;100.0;101770;;;;
2023/02/01 00:55:00;;;;;;;2.0;2.0;;;;;;;4.5;100.0;101770;;;;
2023/02/01 00:56:00;;;;;;;2.0;2.0;;;;;;;4.5;100.0;101770;;;;
2023/02/01 00:57:00;;;;;;;2.0;2.0;;;;;;;4.5;100.0;101780;;;;
2023/02/01 00:58:00;;;;;;;2.0;2.0;;;;;;;4.5;100.0;101780;;;;
2023/02/01 00:59:00;;;;;;;2.0;2.0;;;;;;;4.4;100.0;101770;;;;
2023/02/01 01:00:00;;;;;;;2.0;2.0;;;;;;;4.4;100.0;101770;;;;
2023/02/01 01:01:03;;;;;;;2.0;2.0;;;;;;;4.5;100.0;101770;;;;
2023/02/01 01:02:00;;;;;;;2.0;2.0;;;;;;;4.5;100.0;101770;;;;
2023/02/01 01:03:00;;;;;;;2.0;2.0;;;;;;;4.4;100.0;101770;;;;
2023/02/01 01:04:01;;;;;;;2.0;2.0;;;;;;;4.4;100.0;101770;;;;
2023/02/01 01:05:00;;;;;;;2.0;2.0;;;;;;;4.4;100.0;101770;;;;
2023/02/01 01:06:02;;;;;;;2.0;2.0;;;;;;;4.4;100.0;101770;;;;
2023/02/01 01:07:00;;;;;;;2.0;2.0;;;;;;;4.4;100.0;101770;;;;
2023/02/01 01:08:00;;;;;;;2.0;2.0;;;;;;;4.4;100.0;101770;;;;
2023/02/01 01:09:01;;;;;;;2.0;2.0;;;;;;;4.4;100.0;101770;;;;
2023/02/01 01:10:00;;;;;;;2.0;2.0;;;;;;;4.4;100.0;101770;;;;
2023/02/01 01:11:04;;;;;;;2.0;2.0;;;;;;;4.4;100.0;101770;;;;
2023/02/01 01:12:02;;;;;;;2.0;2.0;;;;;;;4.4;100.0;101770;;;;
2023/02/01 01:13:00;;;;;;;2.0;2.0;;;;;;;4.4;100.0;101770;;;;
2023/02/01 01:14:00;;;;;;;2.0;2.0;;;;;;;4.4;100.0;101770;;;;
2023/02/01 01:15:00;;;;;;;2.1;2.1;;;;;;;4.5;100.0;101770;;;;
2023/02/01 01:16:02;;;;;;;2.1;2.1;;;;;;;4.5;100.0;101770;;;;
2023/02/01 01:17:00;;;;;;;2.1;2.1;;;;;;;4.4;100.0;101780;;;;
2023/02/01 01:18:00;;;;;;;2.1;2.1;;;;;;;4.4;100.0;101780;;;;
2023/02/01 01:19:01;;;;;;;2.1;2.1;;;;;;;4.4;100.0;101780;;;;
2023/02/01 01:20:00;;;;;;;2.1;2.1;;;;;;;4.4;100.0;101780;;;;
2023/02/01 01:21:00;;;;;;;2.1;2.1;;;;;;;4.5;100.0;101760;;;;
2023/02/01 01:22:00;;;;;;;2.1;2.1;;;;;;;4.5;100.0;101760;;;;
2023/02/01 01:23:00;;;;;;;2.1;2.1;;;;;;;4.5;100.0;101760;;;;
2023/02/01 01:24:00;;;;;;;2.1;2.1;;;;;;;4.5;100.0;101760;;;;
2023/02/01 01:25:00;;;;;;;2.1;2.1;;;;;;;4.4;100.0;101760;;;;
2023/02/01 01:26:00;;;;;;;2.1;2.1;;;;;;;4.4;100.0;101760;;;;
2023/02/01 01:27:00;;;;;;;2.1;2.1;;;;;;;4.4;100.0;101760;;;;
2023/02/01 01:28:00;;;;;;;2.1;2.1;;;;;;;4.4;100.0;101760;;;;
2023/02/01 01:29:00;;;;;;;2.1;2.1;;;;;;;4.3;100.0;101770;;;;
2023/02/01 01:30:01;;;;;;;2.1;2.1;;;;;;;4.3;100.0;101770;;;;
2023/02/01 01:31:00;;;;;;;2.1;2.1;;;;;;;4.4;100.0;101760;;;;
2023/02/01 01:32:00;;;;;;;2.1;2.1;;;;;;;4.4;100.0;101760;;;;
2023/02/01 01:33:00;;;;;;;2.1;2.1;;;;;;;4.4;100.0;101760;;;;
2023/02/01 01:34:00;;;;;;;2.1;2.1;;;;;;;4.4;100.0;101760;;;;
2023/02/01 01:35:00;;;;;;;1.9;1.9;;;;;;;4.3;100.0;101760;;;;
2023/02/01 01:36:00;;;;;;;1.9;1.9;;;;;;;4.3;100.0;101760;;;;
2023/02/01 01:37:00;;;;;;;1.9;1.9;;;;;;;4.3;100.0;101760;;;;
2023/02/01 01:38:00;;;;;;;1.9;1.9;;;;;;;4.3;100.0;101760;;;;
2023/02/01 01:39:00;;;;;;;1.9;1.9;;;;;;;4.3;100.0;101760;;;;
2023/02/01 01:40:00;;;;;;;1.9;1.9;;;;;;;4.3;100.0;101760;;;;
2023/02/01 01:41:01;;;;;;;1.9;1.9;;;;;;;4.3;100.0;101760;;;;
2023/02/01 01:42:00;;;;;;;1.9;1.9;;;;;;;4.3;100.0;101760;;;;
2023/02/01 01:43:00;;;;;;;1.9;1.9;;;;;;;4.3;100.0;101760;;;;
2023/02/01 01:44:01;;;;;;;1.9;1.9;;;;;;;4.3;100.0;101760;;;;
2023/02/01 01:45:05;;;;;;;1.9;1.9;;;;;;;4.3;100.0;101760;;;;
2023/02/01 01:46:00;;;;;;;1.9;1.9;;;;;;;4.3;100.0;101760;;;;
2023/02/01 01:47:00;;;;;;;1.9;1.9;;;;;;;4.3;100.0;101770;;;;
2023/02/01 01:48:05;;;;;;;1.9;1.9;;;;;;;4.3;100.0;101770;;;;
2023/02/01 01:49:03;;;;;;;1.9;1.9;;;;;;;4.3;100.0;101770;;;;
2023/02/01 01:50:01;;;;;;;1.9;1.9;;;;;;;4.3;100.0;101770;;;;
2023/02/01 01:51:03;;;;;;;1.9;1.9;;;;;;;4.2;100.0;101760;;;;
2023/02/01 01:52:02;;;;;;;1.9;1.9;;;;;;;4.2;100.0;101760;;;;
2023/02/01 01:53:03;;;;;;;1.9;1.9;;;;;;;4.3;100.0;101760;;;;
2023/02/01 01:54:04;;;;;;;1.9;1.9;;;;;;;4.3;100.0;101760;;;;
2023/02/01 01:55:00;;;;;;;2.4;2.4;;;;;;;4.4;100.0;101760;;;;
2023/02/01 01:56:00;;;;;;;2.4;2.4;;;;;;;4.4;100.0;101760;;;;
2023/02/01 01:57:04;;;;;;;2.4;2.4;;;;;;;4.2;100.0;101770;;;;
2023/02/01 01:58:03;;;;;;;2.4;2.4;;;;;;;4.2;100.0;101770;;;;
2023/02/01 01:59:01;;;;;;;2.4;2.4;;;;;;;4.2;100.0;101770;;;;
2023/02/01 02:00:05;;;;;;;2.4;2.4;;;;;;;4.2;100.0;101770;;;;
2023/02/01 02:01:00;;;;;;;2.4;2.4;;;;;;;4.3;100.0;101770;;;;
2023/02/01 02:02:00;;;;;;;2.4;2.4;;;;;;;4.3;100.0;101770;;;;
2023/02/01 02:03:03;;;;;;;2.4;2.4;;;;;;;4.3;100.0;101770;;;;
2023/02/01 02:04:01;;;;;;;2.4;2.4;;;;;;;4.3;100.0;101770;;;;
2023/02/01 02:05:00;;;;;;;2.4;2.4;;;;;;;4.2;100.0;101770;;;;
2023/02/01 02:06:02;;;;;;;2.4;2.4;;;;;;;4.2;100.0;101770;;;;
2023/02/01 02:07:03;;;;;;;2.4;2.4;;;;;;;4.2;100.0;101770;;;;
2023/02/01 02:08:00;;;;;;;2.4;2.4;;;;;;;4.2;100.0;101770;;;;
2023/02/01 02:09:00;;;;;;;2.4;2.4;;;;;;;4.3;100.0;101760;;;;
2023/02/01 02:10:02;;;;;;;2.4;2.4;;;;;;;4.3;100.0;101760;;;;
2023/02/01 02:11:00;;;;;;;2.4;2.4;;;;;;;4.2;100.0;101760;;;;
2023/02/01 02:12:00;;;;;;;2.4;2.4;;;;;;;4.2;100.0;101760;;;;
2023/02/01 02:13:00;;;;;;;2.4;2.4;;;;;;;4.2;100.0;101760;;;;
2023/02/01 02:14:01;;;;;;;2.4;2.4;;;;;;;4.2;100.0;101760;;;;
2023/02/01 02:15:00;;;;;;;1.9;1.9;;;;;;;4.2;100.0;101760;;;;
2023/02/01 02:16:06;;;;;;;1.9;1.9;;;;;;;4.2;100.0;101760;;;;
2023/02/01 02:17:10;;;;;;;1.9;1.9;;;;;;;4.3;100.0;101750;;;;
2023/02/01 02:18:08;;;;;;;1.9;1.9;;;;;;;4.3;100.0;101750;;;;
2023/02/01 02:19:10;;;;;;;1.9;1.9;;;;;;;4.3;100.0;101750;;;;
2023/02/01 02:20:09;;;;;;;1.9;1.9;;;;;;;4.3;100.0;101750;;;;
2023/02/01 02:21:10;;;;;;;1.9;1.9;;;;;;;4.4;100.0;101740;;;;
2023/02/01 02:22:10;;;;;;;1.9;1.9;;;;;;;4.4;100.0;101740;;;;
2023/02/01 02:23:10;;;;;;;1.9;1.9;;;;;;;4.3;100.0;101740;;;;
2023/02/01 02:24:01;;;;;;;1.9;1.9;;;;;;;4.3;100.0;101740;;;;
2023/02/01 02:25:12;;;;;;;1.9;1.9;;;;;;;4.4;100.0;101730;;;;
2023/02/01 02:26:10;;;;;;;1.9;1.9;;;;;;;4.4;100.0;101730;;;;
2023/02/01 02:27:03;;;;;;;1.9;1.9;;;;;;;4.4;100.0;101730;;;;
2023/02/01 02:28:10;;;;;;;1.9;1.9;;;;;;;4.4;100.0;101730;;;;
2023/02/01 02:29:10;;;;;;;1.9;1.9;;;;;;;4.3;100.0;101720;;;;
2023/02/01 02:30:01;;;;;;;1.9;1.9;;;;;;;4.3;100.0;101720;;;;
2023/02/01 02:31:03;;;;;;;1.9;1.9;;;;;;;4.3;100.0;101730;;;;
2023/02/01 02:32:10;;;;;;;1.9;1.9;;;;;;;4.3;100.0;101730;;;;
2023/02/01 02:33:03;;;;;;;1.9;1.9;;;;;;;4.3;100.0;101730;;;;
2023/02/01 02:34:01;;;;;;;2.1;2.1;;;;;;;4.3;100.0;101730;;;;
2023/02/01 02:35:10;;;;;;;2.1;2.1;;;;;;;4.3;100.0;101730;;;;
2023/02/01 02:36:09;;;;;;;2.1;2.1;;;;;;;4.3;100.0;101730;;;;
2023/02/01 02:37:10;;;;;;;2.1;2.1;;;;;;;4.3;100.0;101730;;;;
2023/02/01 02:38:00;;;;;;;2.1;2.1;;;;;;;4.3;100.0;101730;;;;
2023/02/01 02:39:08;;;;;;;2.1;2.1;;;;;;;4.2;100.0;101720;;;;
2023/02/01 02:40:10;;;;;;;2.1;2.1;;;;;;;4.2;100.0;101720;;;;
2023/02/01 02:41:07;;;;;;;2.1;2.1;;;;;;;4.3;100.0;101720;;;;
2023/02/01 02:48:10;;;;;;;2.1;2.1;;;;;;;4.3;100.0;101730;;;;
2023/02/01 02:49:10;;;;;;;2.1;2.1;;;;;;;4.3;100.0;101730;;;;
2023/02/01 02:55:03;;;;;;;1.9;1.9;;;;;;;4.3;100.0;101720;;;;
2023/02/01 03:04:08;;;;;;;1.9;1.9;;;;;;;4.4;100.0;101710;;;;
2023/02/01 03:05:00;;;;;;;1.9;1.9;;;;;;;4.3;100.0;101710;;;;
2023/02/01 03:06:00;;;;;;;1.9;1.9;;;;;;;4.3;100.0;101710;;;;
2023/02/01 03:07:12;;;;;;;1.9;1.9;;;;;;;4.4;100.0;101700;;;;
2023/02/01 03:08:03;;;;;;;1.9;1.9;;;;;;;4.4;100.0;101700;;;;
2023/02/01 03:09:03;;;;;;;1.9;1.9;;;;;;;4.4;100.0;101700;;;;
2023/02/01 03:10:05;;;;;;;1.9;1.9;;;;;;;4.4;100.0;101700;;;;
2023/02/01 03:11:09;;;;;;;1.9;1.9;;;;;;;4.5;100.0;101700;;;;
2023/02/01 03:13:02;;;;;;;1.9;1.9;;;;;;;4.5;100.0;101700;;;;
2023/02/01 03:14:02;;;;;;;2.0;2.0;;;;;;;4.5;100.0;101700;;;;
2023/02/01 03:15:06;;;;;;;2.0;2.0;;;;;;;4.5;100.0;101700;;;;
2023/02/01 03:16:13;;;;;;;2.0;2.0;;;;;;;4.5;100.0;101700;;;;
2023/02/01 03:17:04;;;;;;;2.0;2.0;;;;;;;4.6;100.0;101710;;;;
2023/02/01 03:18:02;;;;;;;2.0;2.0;;;;;;;4.6;100.0;101710;;;;
2023/02/01 03:19:03;;;;;;;2.0;2.0;;;;;;;4.7;100.0;101700;;;;
2023/02/01 03:20:01;;;;;;;2.0;2.0;;;;;;;4.7;100.0;101700;;;;
2023/02/01 03:21:03;;;;;;;2.0;2.0;;;;;;;4.7;100.0;101700;;;;
2023/02/01 03:22:03;;;;;;;2.0;2.0;;;;;;;4.7;100.0;101700;;;;
2023/02/01 03:23:00;;;;;;;2.0;2.0;;;;;;;4.7;100.0;101690;;;;
2023/02/01 03:24:04;;;;;;;2.0;2.0;;;;;;;4.7;100.0;101690;;;;
2023/02/01 03:25:05;;;;;;;2.0;2.0;;;;;;;4.7;100.0;101680;;;;
2023/02/01 03:26:01;;;;;;;2.0;2.0;;;;;;;4.7;100.0;101680;;;;
2023/02/01 03:27:08;;;;;;;2.0;2.0;;;;;;;4.7;100.0;101680;;;;
2023/02/01 03:28:04;;;;;;;2.0;2.0;;;;;;;4.7;100.0;101680;;;;
2023/02/01 03:29:05;;;;;;;2.0;2.0;;;;;;;4.7;100.0;101690;;;;
2023/02/01 03:30:05;;;;;;;2.0;2.0;;;;;;;4.7;100.0;101690;;;;
2023/02/01 03:31:01;;;;;;;2.0;2.0;;;;;;;4.8;100.0;101690;;;;
2023/02/01 03:32:00;;;;;;;2.0;2.0;;;;;;;4.8;100.0;101690;;;;
2023/02/01 03:33:02;;;;;;;2.0;2.0;;;;;;;4.8;100.0;101690;;;;
2023/02/01 03:34:00;;;;;;;1.7;1.7;;;;;;;4.8;100.0;101690;;;;
2023/02/01 03:35:00;;;;;;;1.7;1.7;;;;;;;4.7;100.0;101690;;;;
2023/02/01 03:36:06;;;;;;;1.7;1.7;;;;;;;4.7;100.0;101690;;;;
2023/02/01 03:37:03;;;;;;;1.7;1.7;;;;;;;4.7;100.0;101690;;;;
2023/02/01 03:38:03;;;;;;;1.7;1.7;;;;;;;4.7;100.0;101690;;;;
2023/02/01 03:39:10;;;;;;;1.7;1.7;;;;;;;4.7;100.0;101680;;;;
2023/02/01 03:40:05;;;;;;;1.7;1.7;;;;;;;4.7;100.0;101680;;;;
2023/02/01 03:41:10;;;;;;;1.7;1.7;;;;;;;4.7;100.0;101690;;;;
2023/02/01 03:42:02;;;;;;;1.7;1.7;;;;;;;4.7;100.0;101690;;;;
2023/02/01 03:43:02;;;;;;;1.7;1.7;;;;;;;4.6;100.0;101690;;;;
2023/02/01 03:44:04;;;;;;;1.7;1.7;;;;;;;4.6;100.0;101690;;;;
2023/02/01 03:45:07;;;;;;;1.7;1.7;;;;;;;4.7;100.0;101680;;;;
2023/02/01 03:46:04;;;;;;;1.7;1.7;;;;;;;4.7;100.0;101680;;;;
2023/02/01 03:47:08;;;;;;;1.7;1.7;;;;;;;4.6;100.0;101670;;;;
2023/02/01 03:48:02;;;;;;;1.7;1.7;;;;;;;4.6;100.0;101670;;;;
2023/02/01 03:49:03;;;;;;;1.7;1.7;;;;;;;4.7;100.0;101670;;;;
2023/02/01 03:50:02;;;;;;;1.7;1.7;;;;;;;4.7;100.0;101670;;;;
2023/02/01 03:51:03;;;;;;;1.7;1.7;;;;;;;4.6;100.0;101660;;;;
2023/02/01 03:52:01;;;;;;;1.7;1.7;;;;;;;4.6;100.0;101660;;;;
2023/02/01 03:53:03;;;;;;;1.7;1.7;;;;;;;4.6;100.0;101670;;;;
2023/02/01 03:54:02;;;;;;;2.0;2.0;;;;;;;4.6;100.0;101670;;;;
2023/02/01 03:55:01;;;;;;;2.0;2.0;;;;;;;4.5;100.0;101680;;;;
2023/02/01 03:56:01;;;;;;;2.0;2.0;;;;;;;4.5;100.0;101680;;;;
2023/02/01 03:57:03;;;;;;;2.0;2.0;;;;;;;4.5;100.0;101690;;;;
2023/02/01 03:58:10;;;;;;;2.0;2.0;;;;;;;4.5;100.0;101690;;;;
2023/02/01 03:59:00;;;;;;;2.0;2.0;;;;;;;4.5;100.0;101690;;;;
2023/02/01 04:00:11;;;;;;;2.0;2.0;;;;;;;4.5;100.0;101690;;;;
2023/02/01 04:01:00;;;;;;;2.0;2.0;;;;;;;4.5;100.0;101680;;;;
2023/02/01 04:02:00;;;;;;;2.0;2.0;;;;;;;4.5;100.0;101680;;;;
2023/02/01 04:03:02;;;;;;;2.0;2.0;;;;;;;4.4;100.0;101680;;;;
2023/02/01 04:04:00;;;;;;;2.0;2.0;;;;;;;4.4;100.0;101680;;;;
2023/02/01 04:05:00;;;;;;;2.0;2.0;;;;;;;4.5;100.0;101670;;;;
2023/02/01 04:06:00;;;;;;;2.0;2.0;;;;;;;4.5;100.0;101670;;;;
2023/02/01 04:07:00;;;;;;;2.0;2.0;;;;;;;4.5;100.0;101670;;;;
2023/02/01 04:08:00;;;;;;;2.0;2.0;;;;;;;4.5;100.0;101670;;;;
2023/02/01 04:09:00;;;;;;;2.0;2.0;;;;;;;4.5;100.0;101680;;;;
2023/02/01 04:10:00;;;;;;;2.0;2.0;;;;;;;4.5;100.0;101680;;;;
2023/02/01 04:11:00;;;;;;;2.0;2.0;;;;;;;4.4;100.0;101690;;;;
2023/02/01 04:12:00;;;;;;;2.0;2.0;;;;;;;4.4;100.0;101690;;;;
2023/02/01 04:13:00;;;;;;;2.0;2.0;;;;;;;4.4;100.0;101680;;;;
2023/02/01 04:14:04;;;;;;;2.1;2.1;;;;;;;4.4;100.0;101680;;;;
2023/02/01 04:15:00;;;;;;;2.1;2.1;;;;;;;4.5;100.0;101690;;;;
2023/02/01 04:16:00;;;;;;;2.1;2.1;;;;;;;4.5;100.0;101690;;;;
2023/02/01 04:17:00;;;;;;;2.1;2.1;;;;;;;4.5;100.0;101690;;;;
2023/02/01 04:18:00;;;;;;;2.1;2.1;;;;;;;4.5;100.0;101690;;;;
2023/02/01 04:19:00;;;;;;;2.1;2.1;;;;;;;4.4;100.0;101690;;;;
2023/02/01 04:20:00;;;;;;;2.1;2.1;;;;;;;4.4;100.0;101690;;;;
2023/02/01 04:21:01;;;;;;;2.1;2.1;;;;;;;4.5;100.0;101690;;;;
2023/02/01 04:22:00;;;;;;;2.1;2.1;;;;;;;4.5;100.0;101690;;;;
2023/02/01 04:23:02;;;;;;;2.1;2.1;;;;;;;4.4;100.0;101690;;;;
2023/02/01 04:24:00;;;;;;;2.1;2.1;;;;;;;4.4;100.0;101690;;;;
2023/02/01 04:25:00;;;;;;;2.1;2.1;;;;;;;4.4;100.0;101690;;;;
2023/02/01 04:26:01;;;;;;;2.1;2.1;;;;;;;4.4;100.0;101690;;;;
2023/02/01 04:27:02;;;;;;;2.1;2.1;;;;;;;4.3;100.0;101690;;;;
2023/02/01 04:28:00;;;;;;;2.1;2.1;;;;;;;4.3;100.0;101690;;;;
2023/02/01 04:29:00;;;;;;;2.1;2.1;;;;;;;4.3;100.0;101690;;;;
2023/02/01 04:30:00;;;;;;;2.1;2.1;;;;;;;4.3;100.0;101690;;;;
2023/02/01 04:31:00;;;;;;;2.1;2.1;;;;;;;4.4;100.0;101700;;;;
2023/02/01 04:32:00;;;;;;;2.1;2.1;;;;;;;4.4;100.0;101700;;;;
2023/02/01 04:33:03;;;;;;;2.1;2.1;;;;;;;4.3;100.0;101700;;;;
2023/02/01 04:34:00;;;;;;;2.2;2.2;;;;;;;4.3;100.0;101700;;;;
2023/02/01 04:35:00;;;;;;;2.2;2.2;;;;;;;4.4;100.0;101690;;;;
2023/02/01 04:36:00;;;;;;;2.2;2.2;;;;;;;4.4;100.0;101690;;;;
2023/02/01 04:37:00;;;;;;;2.2;2.2;;;;;;;4.3;100.0;101680;;;;
2023/02/01 04:38:00;;;;;;;2.2;2.2;;;;;;;4.3;100.0;101680;;;;
2023/02/01 04:39:00;;;;;;;2.2;2.2;;;;;;;4.4;100.0;101680;;;;
2023/02/01 04:40:00;;;;;;;2.2;2.2;;;;;;;4.4;100.0;101680;;;;
2023/02/01 04:41:00;;;;;;;2.2;2.2;;;;;;;4.4;100.0;101680;;;;
2023/02/01 04:42:00;;;;;;;2.2;2.2;;;;;;;4.4;100.0;101680;;;;
2023/02/01 04:43:01;;;;;;;2.2;2.2;;;;;;;4.3;100.0;101690;;;;
2023/02/01 04:44:00;;;;;;;2.2;2.2;;;;;;;4.3;100.0;101690;;;;
2023/02/01 04:45:00;;;;;;;2.2;2.2;;;;;;;4.3;100.0;101690;;;;
2023/02/01 04:46:00;;;;;;;2.2;2.2;;;;;;;4.3;100.0;101690;;;;
2023/02/01 04:47:00;;;;;;;2.2;2.2;;;;;;;4.3;100.0;101690;;;;
2023/02/01 04:48:00;;;;;;;2.2;2.2;;;;;;;4.3;100.0;101690;;;;
2023/02/01 04:49:00;;;;;;;2.2;2.2;;;;;;;4.3;100.0;101700;;;;
2023/02/01 04:50:00;;;;;;;2.2;2.2;;;;;;;4.3;100.0;101700;;;;
2023/02/01 04:51:00;;;;;;;2.2;2.2;;;;;;;4.3;100.0;101710;;;;
2023/02/01 04:52:00;;;;;;;2.2;2.2;;;;;;;4.3;100.0;101710;;;;
2023/02/01 04:53:00;;;;;;;2.2;2.2;;;;;;;4.4;100.0;101710;;;;
2023/02/01 04:54:00;;;;;;;2.7;2.6;;;;;;;4.4;100.0;101710;;;;
2023/02/01 04:55:02;;;;;;;2.7;2.6;;;;;;;4.3;100.0;101710;;;;
2023/02/01 04:56:00;;;;;;;2.7;2.6;;;;;;;4.3;100.0;101710;;;;
2023/02/01 04:57:00;;;;;;;2.7;2.6;;;;;;;4.3;100.0;101700;;;;
2023/02/01 04:58:00;;;;;;;2.7;2.6;;;;;;;4.3;100.0;101700;;;;
2023/02/01 04:59:02;;;;;;;2.7;2.6;;;;;;;4.3;100.0;101700;;;;
2023/02/01 05:00:00;;;;;;;2.7;2.6;;;;;;;4.3;100.0;101700;;;;
2023/02/01 05:01:04;;;;;;;2.7;2.6;;;;;;;4.3;100.0;101710;;;;
2023/02/01 05:02:00;;;;;;;2.7;2.6;;;;;;;4.3;100.0;101710;;;;
2023/02/01 05:03:00;;;;;;;2.7;2.6;;;;;;;4.4;100.0;101700;;;;
2023/02/01 05:04:00;;;;;;;2.7;2.6;;;;;;;4.4;100.0;101700;;;;
2023/02/01 05:05:00;;;;;;;2.7;2.6;;;;;;;4.4;100.0;101700;;;;
2023/02/01 05:06:01;;;;;;;2.7;2.6;;;;;;;4.4;100.0;101700;;;;
2023/02/01 05:07:00;;;;;;;2.7;2.6;;;;;;;4.3;100.0;101700;;;;
2023/02/01 05:08:00;;;;;;;2.7;2.6;;;;;;;4.3;100.0;101700;;;;
2023/02/01 05:09:00;;;;;;;2.7;2.6;;;;;;;4.5;100.0;101700;;;;
2023/02/01 05:10:00;;;;;;;2.7;2.6;;;;;;;4.5;100.0;101700;;;;
2023/02/01 05:11:02;;;;;;;2.7;2.6;;;;;;;4.5;100.0;101690;;;;
2023/02/01 05:14:02;;;;;;;1.8;1.8;;;;;;;4.4;100.0;101690;;;;
2023/02/01 05:15:00;;;;;;;1.8;1.8;;;;;;;4.5;100.0;101690;;;;
2023/02/01 05:16:00;;;;;;;1.8;1.8;;;;;;;4.5;100.0;101690;;;;
2023/02/01 05:17:00;;;;;;;1.8;1.8;;;;;;;4.6;100.0;101690;;;;
2023/02/01 05:18:00;;;;;;;1.8;1.8;;;;;;;4.6;100.0;101690;;;;
2023/02/01 05:19:00;;;;;;;1.8;1.8;;;;;;;4.6;100.0;101690;;;;
2023/02/01 05:20:00;;;;;;;1.8;1.8;;;;;;;4.6;100.0;101690;;;;
2023/02/01 05:21:01;;;;;;;1.8;1.8;;;;;;;4.7;100.0;101690;;;;
2023/02/01 05:22:00;;;;;;;1.8;1.8;;;;;;;4.7;100.0;101690;;;;
2023/02/01 05:23:00;;;;;;;1.8;1.8;;;;;;;4.6;100.0;101690;;;;
2023/02/01 05:25:00;;;;;;;1.8;1.8;;;;;;;4.6;100.0;101690;;;;
2023/02/01 05:26:01;;;;;;;1.8;1.8;;;;;;;4.6;100.0;101690;;;;
2023/02/01 05:27:00;;;;;;;1.8;1.8;;;;;;;4.6;100.0;101690;;;;
2023/02/01 05:28:00;;;;;;;1.8;1.8;;;;;;;4.6;100.0;101690;;;;
2023/02/01 05:29:00;;;;;;;1.8;1.8;;;;;;;4.6;100.0;101670;;;;
2023/02/01 05:30:00;;;;;;;1.8;1.8;;;;;;;4.6;100.0;101670;;;;
2023/02/01 05:31:00;;;;;;;1.8;1.8;;;;;;;4.7;100.0;101680;;;;
2023/02/01 05:32:10;;;;;;;1.8;1.8;;;;;;;4.7;100.0;101680;;;;
2023/02/01 05:33:00;;;;;;;1.8;1.8;;;;;;;4.8;100.0;101670;;;;
2023/02/01 05:34:00;;;;;;;2.1;2.1;;;;;;;4.8;100.0;101670;;;;
2023/02/01 05:35:00;;;;;;;2.1;2.1;;;;;;;4.7;100.0;101660;;;;
2023/02/01 05:36:00;;;;;;;2.1;2.1;;;;;;;4.7;100.0;101660;;;;
2023/02/01 05:37:00;;;;;;;2.1;2.1;;;;;;;4.8;100.0;101660;;;;
2023/02/01 05:38:00;;;;;;;2.1;2.1;;;;;;;4.8;100.0;101660;;;;
2023/02/01 05:39:00;;;;;;;2.1;2.1;;;;;;;4.7;100.0;101650;;;;
2023/02/01 05:40:00;;;;;;;2.1;2.1;;;;;;;4.7;100.0;101650;;;;
2023/02/01 05:41:00;;;;;;;2.1;2.1;;;;;;;4.7;100.0;101670;;;;
2023/02/01 05:42:00;;;;;;;2.1;2.1;;;;;;;4.7;100.0;101670;;;;
2023/02/01 05:43:00;;;;;;;2.1;2.1;;;;;;;4.6;100.0;101660;;;;
2023/02/01 05:44:00;;;;;;;2.1;2.1;;;;;;;4.6;100.0;101660;;;;
2023/02/01 05:45:00;;;;;;;2.1;2.1;;;;;;;4.6;100.0;101670;;;;
2023/02/01 05:46:00;;;;;;;2.1;2.1;;;;;;;4.6;100.0;101670;;;;
2023/02/01 05:47:00;;;;;;;2.1;2.1;;;;;;;4.6;100.0;101680;;;;
2023/02/01 05:48:00;;;;;;;2.1;2.1;;;;;;;4.6;100.0;101680;;;;
2023/02/01 05:49:00;;;;;;;2.1;2.1;;;;;;;4.6;100.0;101690;;;;
2023/02/01 05:50:00;;;;;;;2.1;2.1;;;;;;;4.6;100.0;101690;;;;
2023/02/01 05:51:00;;;;;;;2.1;2.1;;;;;;;4.6;100.0;101690;;;;
2023/02/01 05:52:00;;;;;;;2.1;2.1;;;;;;;4.6;100.0;101690;;;;
2023/02/01 05:53:00;;;;;;;2.1;2.1;;;;;;;4.6;100.0;101690;;;;
2023/02/01 05:54:00;;;;;;;2.1;2.1;;;;;;;4.6;100.0;101690;;;;
2023/02/01 05:55:00;;;;;;;2.1;2.1;;;;;;;4.6;100.0;101690;;;;
2023/02/01 05:56:00;;;;;;;2.1;2.1;;;;;;;4.6;100.0;101690;;;;
2023/02/01 05:57:00;;;;;;;2.1;2.1;;;;;;;4.7;100.0;101700;;;;
2023/02/01 05:58:00;;;;;;;2.1;2.1;;;;;;;4.7;100.0;101700;;;;
2023/02/01 05:59:00;;;;;;;2.1;2.1;;;;;;;4.7;100.0;101700;;;;
2023/02/01 06:00:01;;;;;;;2.1;2.1;;;;;;;4.7;100.0;101700;;;;
2023/02/01 06:01:01;;;;;;;2.1;2.1;;;;;;;4.7;100.0;101700;;;;
2023/02/01 06:02:00;;;;;;;2.1;2.1;;;;;;;4.7;100.0;101700;;;;
2023/02/01 06:03:01;;;;;;;2.1;2.1;;;;;;;4.7;100.0;101700;;;;
2023/02/01 06:04:00;;;;;;;2.1;2.1;;;;;;;4.7;100.0;101700;;;;
2023/02/01 06:05:00;;;;;;;2.1;2.1;;;;;;;4.7;100.0;101700;;;;
2023/02/01 06:06:00;;;;;;;2.1;2.1;;;;;;;4.7;100.0;101700;;;;
2023/02/01 06:07:00;;;;;;;2.1;2.1;;;;;;;4.7;100.0;101700;;;;
2023/02/01 06:08:00;;;;;;;2.1;2.1;;;;;;;4.7;100.0;101700;;;;
2023/02/01 06:09:00;;;;;;;2.1;2.1;;;;;;;4.6;100.0;101700;;;;
2023/02/01 06:10:00;;;;;;;2.1;2.1;;;;;;;4.6;100.0;101700;;;;
2023/02/01 06:11:01;;;;;;;2.1;2.1;;;;;;;4.7;100.0;101700;;;;
2023/02/01 06:12:00;;;;;;;2.1;2.1;;;;;;;4.7;100.0;101700;;;;
2023/02/01 06:13:00;;;;;;;2.1;2.1;;;;;;;4.7;100.0;101700;;;;
2023/02/01 06:14:00;;;;;;;1.9;1.9;;;;;;;4.7;100.0;101700;;;;
2023/02/01 06:15:00;;;;;;;1.9;1.9;;;;;;;4.8;100.0;101690;;;;
2023/02/01 06:16:01;;;;;;;1.9;1.9;;;;;;;4.8;100.0;101690;;;;
2023/02/01 06:17:00;;;;;;;1.9;1.9;;;;;;;4.8;100.0;101700;;;;
2023/02/01 06:18:00;;;;;;;1.9;1.9;;;;;;;4.8;100.0;101700;;;;
2023/02/01 06:19:00;;;;;;;1.9;1.9;;;;;;;4.8;100.0;101690;;;;
2023/02/01 06:20:00;;;;;;;1.9;1.9;;;;;;;4.8;100.0;101690;;;;
2023/02/01 06:21:01;;;;;;;1.9;1.9;;;;;;;4.9;100.0;101680;;;;
2023/02/01 06:22:00;;;;;;;1.9;1.9;;;;;;;4.9;100.0;101680;;;;
2023/02/01 06:23:00;;;;;;;1.9;1.9;;;;;;;4.9;100.0;101680;;;;
2023/02/01 06:24:00;;;;;;;1.9;1.9;;;;;;;4.9;100.0;101680;;;;
2023/02/01 06:25:00;;;;;;;1.9;1.9;;;;;;;4.9;100.0;101680;;;;
2023/02/01 06:26:02;;;;;;;1.9;1.9;;;;;;;4.9;100.0;101680;;;;
2023/02/01 06:27:00;;;;;;;1.9;1.9;;;;;;;4.8;100.0;101680;;;;
2023/02/01 06:28:01;;;;;;;1.9;1.9;;;;;;;4.8;100.0;101680;;;;
2023/02/01 06:29:00;;;;;;;1.9;1.9;;;;;;;4.8;100.0;101690;;;;
2023/02/01 06:30:00;;;;;;;1.9;1.9;;;;;;;4.8;100.0;101690;;;;
2023/02/01 06:31:06;;;;;;;1.9;1.9;;;;;;;4.9;100.0;101690;;;;
2023/02/01 06:32:00;;;;;;;1.9;1.9;;;;;;;4.9;100.0;101690;;;;
2023/02/01 06:33:00;;;;;;;1.7;1.7;;;;;;;4.9;100.0;101700;;;;
2023/02/01 06:34:00;;;;;;;1.7;1.7;;;;;;;4.9;100.0;101700;;;;
2023/02/01 06:35:00;;;;;;;1.7;1.7;;;;;;;5.0;100.0;101700;;;;
2023/02/01 06:36:01;;;;;;;1.7;1.7;;;;;;;5.0;100.0;101700;;;;
2023/02/01 06:37:00;;;;;;;1.7;1.7;;;;;;;5.0;100.0;101700;;;;
2023/02/01 06:38:00;;;;;;;1.7;1.7;;;;;;;5.0;100.0;101700;;;;
2023/02/01 06:39:00;;;;;;;1.7;1.7;;;;;;;5.0;100.0;101700;;;;
2023/02/01 06:40:00;;;;;;;1.7;1.7;;;;;;;5.0;100.0;101700;;;;
2023/02/01 06:41:00;;;;;;;1.7;1.7;;;;;;;4.9;100.0;101700;;;;
2023/02/01 06:42:00;;;;;;;1.7;1.7;;;;;;;4.9;100.0;101700;;;;
2023/02/01 06:43:00;;;;;;;1.7;1.7;;;;;;;5.0;100.0;101710;;;;
2023/02/01 06:44:00;;;;;;;1.7;1.7;;;;;;;5.0;100.0;101710;;;;
2023/02/01 06:45:00;;;;;;;1.7;1.7;;;;;;;5.1;100.0;101720;;;;
2023/02/01 06:46:01;;;;;;;1.7;1.7;;;;;;;5.1;100.0;101720;;;;
2023/02/01 06:47:00;;;;;;;1.7;1.7;;;;;;;5.0;100.0;101710;;;;
2023/02/01 06:48:00;;;;;;;1.7;1.7;;;;;;;5.0;100.0;101710;;;;
2023/02/01 06:49:00;;;;;;;1.7;1.7;;;;;;;5.1;100.0;101710;;;;
2023/02/01 06:50:00;;;;;;;1.7;1.7;;;;;;;5.1;100.0;101710;;;;
2023/02/01 06:51:00;;;;;;;1.7;1.7;;;;;;;5.2;100.0;101710;;;;
2023/02/01 06:52:00;;;;;;;1.7;1.7;;;;;;;5.2;100.0;101710;;;;